Terminal Aerodrome Forecast
Issued by NWS Flagstaff, AZ

Home | Current Version | Previous Version | Text Only | Print | Product List | Glossary On
Versions: 1 2 3 4 5 6 7 8 9 10 11 12 13 14 15
692
FTUS45 KFGZ 181720
TAFINW
TAF
KINW 181720Z 1818/1918 24009KT P6SM FEW250
     FM190300 21007KT P6SM FEW130 SCT200
     FM191500 22015G20KT P6SM OVC060=

USA.gov is the U.S. government's official web portal to all federal, state and local government web resources and services.